sensor_id;sensor_type;location;lat;lon;timestamp;P1;durP1;ratioP1;P2;durP2;ratioP2
38399;SDS011;24180;42.676;23.320;2023-05-10T00:00:50;13.33;;;10.83;;
38399;SDS011;24180;42.676;23.320;2023-05-10T00:03:15;12.07;;;10.87;;
38399;SDS011;24180;42.676;23.320;2023-05-10T00:05:41;13.13;;;11.83;;
38399;SDS011;24180;42.676;23.320;2023-05-10T00:08:06;12.60;;;11.20;;
38399;SDS011;24180;42.676;23.320;2023-05-10T00:10:32;12.63;;;11.40;;
38399;SDS011;24180;42.676;23.320;2023-05-10T00:12:57;13.07;;;10.90;;
38399;SDS011;24180;42.676;23.320;2023-05-10T00:15:23;13.27;;;11.40;;
38399;SDS011;24180;42.676;23.320;2023-05-10T00:17:48;13.00;;;11.60;;
38399;SDS011;24180;42.676;23.320;2023-05-10T00:20:13;12.77;;;11.47;;
38399;SDS011;24180;42.676;23.320;2023-05-10T00:22:39;14.33;;;11.60;;
38399;SDS011;24180;42.676;23.320;2023-05-10T00:25:05;12.63;;;11.43;;
38399;SDS011;24180;42.676;23.320;2023-05-10T00:27:31;13.87;;;12.00;;
38399;SDS011;24180;42.676;23.320;2023-05-10T00:29:56;15.00;;;12.10;;
38399;SDS011;24180;42.676;23.320;2023-05-10T00:32:22;13.87;;;11.93;;
38399;SDS011;24180;42.676;23.320;2023-05-10T00:34:47;13.70;;;12.30;;
38399;SDS011;24180;42.676;23.320;2023-05-10T00:37:12;13.93;;;12.50;;
38399;SDS011;24180;42.676;23.320;2023-05-10T00:39:38;15.37;;;13.03;;
38399;SDS011;24180;42.676;23.320;2023-05-10T00:42:03;16.50;;;13.23;;
38399;SDS011;24180;42.676;23.320;2023-05-10T00:44:29;15.40;;;13.80;;
38399;SDS011;24180;42.676;23.320;2023-05-10T00:46:55;15.67;;;13.90;;
38399;SDS011;24180;42.676;23.320;2023-05-10T00:49:21;15.87;;;14.03;;
38399;SDS011;24180;42.676;23.320;2023-05-10T00:51:47;19.10;;;13.90;;
38399;SDS011;24180;42.676;23.320;2023-05-10T00:54:13;15.73;;;14.17;;
38399;SDS011;24180;42.676;23.320;2023-05-10T00:56:40;17.10;;;14.63;;
38399;SDS011;24180;42.676;23.320;2023-05-10T00:59:06;15.87;;;14.30;;
38399;SDS011;24180;42.676;23.320;2023-05-10T01:01:33;15.83;;;14.07;;
38399;SDS011;24180;42.676;23.320;2023-05-10T01:03:58;16.70;;;15.00;;
38399;SDS011;24180;42.676;23.320;2023-05-10T01:06:24;17.23;;;15.23;;
38399;SDS011;24180;42.676;23.320;2023-05-10T01:08:50;17.67;;;14.70;;
38399;SDS011;24180;42.676;23.320;2023-05-10T01:11:15;15.43;;;13.90;;
38399;SDS011;24180;42.676;23.320;2023-05-10T01:13:41;17.83;;;15.37;;
38399;SDS011;24180;42.676;23.320;2023-05-10T01:16:10;17.23;;;15.33;;
38399;SDS011;24180;42.676;23.320;2023-05-10T01:18:38;15.80;;;14.20;;
38399;SDS011;24180;42.676;23.320;2023-05-10T01:23:36;18.10;;;15.37;;
38399;SDS011;24180;42.676;23.320;2023-05-10T01:42:59;16.17;;;14.37;;
38399;SDS011;24180;42.676;23.320;2023-05-10T01:45:29;14.87;;;13.40;;
38399;SDS011;24180;42.676;23.320;2023-05-10T01:48:03;15.03;;;13.10;;
38399;SDS011;24180;42.676;23.320;2023-05-10T01:50:34;13.10;;;11.80;;
38399;SDS011;24180;42.676;23.320;2023-05-10T01:53:01;12.73;;;11.53;;
38399;SDS011;24180;42.676;23.320;2023-05-10T01:55:30;12.13;;;10.97;;
38399;SDS011;24180;42.676;23.320;2023-05-10T01:58:06;12.27;;;11.17;;
38399;SDS011;24180;42.676;23.320;2023-05-10T02:00:35;11.10;;;10.00;;
38399;SDS011;24180;42.676;23.320;2023-05-10T02:03:07;11.87;;;10.67;;
38399;SDS011;24180;42.676;23.320;2023-05-10T02:05:35;11.47;;;10.37;;
38399;SDS011;24180;42.676;23.320;2023-05-10T02:08:03;11.43;;;10.33;;
38399;SDS011;24180;42.676;23.320;2023-05-10T02:10:31;11.00;;;9.83;;
38399;SDS011;24180;42.676;23.320;2023-05-10T02:12:58;10.60;;;9.60;;
38399;SDS011;24180;42.676;23.320;2023-05-10T02:15:25;11.87;;;10.07;;
38399;SDS011;24180;42.676;23.320;2023-05-10T02:17:52;11.83;;;10.73;;
38399;SDS011;24180;42.676;23.320;2023-05-10T02:20:20;10.93;;;9.83;;
38399;SDS011;24180;42.676;23.320;2023-05-10T02:22:47;10.43;;;9.23;;
38399;SDS011;24180;42.676;23.320;2023-05-10T02:25:15;11.10;;;10.03;;
38399;SDS011;24180;42.676;23.320;2023-05-10T02:27:44;9.10;;;8.17;;
38399;SDS011;24180;42.676;23.320;2023-05-10T02:30:10;10.50;;;9.03;;
38399;SDS011;24180;42.676;23.320;2023-05-10T02:32:36;10.30;;;8.87;;
38399;SDS011;24180;42.676;23.320;2023-05-10T02:35:02;10.90;;;9.37;;
38399;SDS011;24180;42.676;23.320;2023-05-10T02:37:29;10.67;;;9.57;;
38399;SDS011;24180;42.676;23.320;2023-05-10T02:39:55;10.37;;;8.70;;
38399;SDS011;24180;42.676;23.320;2023-05-10T02:42:27;10.23;;;8.40;;
38399;SDS011;24180;42.676;23.320;2023-05-10T02:45:07;9.00;;;8.10;;
38399;SDS011;24180;42.676;23.320;2023-05-10T02:47:36;10.07;;;8.93;;
38399;SDS011;24180;42.676;23.320;2023-05-10T02:50:02;11.33;;;9.47;;
38399;SDS011;24180;42.676;23.320;2023-05-10T02:52:30;10.87;;;9.20;;
38399;SDS011;24180;42.676;23.320;2023-05-10T02:55:04;11.87;;;9.33;;
38399;SDS011;24180;42.676;23.320;2023-05-10T02:57:33;10.97;;;9.73;;
38399;SDS011;24180;42.676;23.320;2023-05-10T03:00:00;10.23;;;8.47;;
38399;SDS011;24180;42.676;23.320;2023-05-10T03:02:26;9.90;;;8.57;;
38399;SDS011;24180;42.676;23.320;2023-05-10T03:04:52;9.80;;;8.90;;
38399;SDS011;24180;42.676;23.320;2023-05-10T03:07:17;12.23;;;9.30;;
38399;SDS011;24180;42.676;23.320;2023-05-10T03:09:46;11.73;;;9.40;;
38399;SDS011;24180;42.676;23.320;2023-05-10T03:20:47;12.80;;;8.93;;
38399;SDS011;24180;42.676;23.320;2023-05-10T03:23:34;9.60;;;8.63;;
38399;SDS011;24180;42.676;23.320;2023-05-10T03:26:05;10.63;;;9.53;;
38399;SDS011;24180;42.676;23.320;2023-05-10T03:28:32;10.30;;;8.97;;
38399;SDS011;24180;42.676;23.320;2023-05-10T03:30:59;9.80;;;8.90;;
38399;SDS011;24180;42.676;23.320;2023-05-10T03:33:25;10.97;;;8.60;;
38399;SDS011;24180;42.676;23.320;2023-05-10T03:35:50;9.70;;;8.57;;
38399;SDS011;24180;42.676;23.320;2023-05-10T03:38:16;8.17;;;7.47;;
38399;SDS011;24180;42.676;23.320;2023-05-10T03:40:41;10.37;;;8.83;;
38399;SDS011;24180;42.676;23.320;2023-05-10T03:43:07;8.37;;;7.67;;
38399;SDS011;24180;42.676;23.320;2023-05-10T03:45:32;8.73;;;7.93;;
38399;SDS011;24180;42.676;23.320;2023-05-10T03:47:58;8.07;;;7.27;;
38399;SDS011;24180;42.676;23.320;2023-05-10T03:50:23;7.83;;;7.13;;
38399;SDS011;24180;42.676;23.320;2023-05-10T03:52:49;8.37;;;7.63;;
38399;SDS011;24180;42.676;23.320;2023-05-10T03:55:15;8.43;;;7.73;;
38399;SDS011;24180;42.676;23.320;2023-05-10T03:57:41;9.50;;;7.67;;
38399;SDS011;24180;42.676;23.320;2023-05-10T04:00:07;7.97;;;7.17;;
38399;SDS011;24180;42.676;23.320;2023-05-10T04:02:33;8.93;;;8.03;;
38399;SDS011;24180;42.676;23.320;2023-05-10T04:04:58;8.80;;;8.00;;
38399;SDS011;24180;42.676;23.320;2023-05-10T04:07:24;8.90;;;7.77;;
38399;SDS011;24180;42.676;23.320;2023-05-10T04:09:49;8.40;;;7.60;;
38399;SDS011;24180;42.676;23.320;2023-05-10T04:12:15;8.40;;;7.47;;
38399;SDS011;24180;42.676;23.320;2023-05-10T04:14:40;8.87;;;7.70;;
38399;SDS011;24180;42.676;23.320;2023-05-10T04:17:05;8.93;;;7.87;;
38399;SDS011;24180;42.676;23.320;2023-05-10T04:19:31;8.73;;;7.90;;
38399;SDS011;24180;42.676;23.320;2023-05-10T04:21:57;12.33;;;8.20;;
38399;SDS011;24180;42.676;23.320;2023-05-10T04:24:23;8.70;;;7.80;;
38399;SDS011;24180;42.676;23.320;2023-05-10T04:26:48;8.30;;;7.50;;
38399;SDS011;24180;42.676;23.320;2023-05-10T04:29:14;9.30;;;7.83;;
38399;SDS011;24180;42.676;23.320;2023-05-10T04:31:39;8.47;;;7.27;;
38399;SDS011;24180;42.676;23.320;2023-05-10T04:34:04;8.07;;;7.27;;
38399;SDS011;24180;42.676;23.320;2023-05-10T04:36:30;8.13;;;7.23;;
38399;SDS011;24180;42.676;23.320;2023-05-10T04:38:57;7.73;;;7.13;;
38399;SDS011;24180;42.676;23.320;2023-05-10T04:41:22;8.33;;;7.43;;
38399;SDS011;24180;42.676;23.320;2023-05-10T04:43:48;8.33;;;7.40;;
38399;SDS011;24180;42.676;23.320;2023-05-10T04:46:14;9.27;;;8.37;;
38399;SDS011;24180;42.676;23.320;2023-05-10T04:48:39;9.50;;;8.57;;
38399;SDS011;24180;42.676;23.320;2023-05-10T04:51:05;9.30;;;8.40;;
38399;SDS011;24180;42.676;23.320;2023-05-10T04:53:31;8.70;;;7.80;;
38399;SDS011;24180;42.676;23.320;2023-05-10T04:55:57;9.63;;;8.47;;
38399;SDS011;24180;42.676;23.320;2023-05-10T04:58:22;9.23;;;8.23;;
38399;SDS011;24180;42.676;23.320;2023-05-10T05:00:48;8.93;;;8.03;;
38399;SDS011;24180;42.676;23.320;2023-05-10T05:03:13;9.10;;;8.20;;
38399;SDS011;24180;42.676;23.320;2023-05-10T05:05:39;9.40;;;8.27;;
38399;SDS011;24180;42.676;23.320;2023-05-10T05:08:04;9.43;;;8.43;;
38399;SDS011;24180;42.676;23.320;2023-05-10T05:10:30;8.93;;;8.13;;
38399;SDS011;24180;42.676;23.320;2023-05-10T05:12:55;9.57;;;8.03;;
38399;SDS011;24180;42.676;23.320;2023-05-10T05:15:20;9.17;;;8.27;;
38399;SDS011;24180;42.676;23.320;2023-05-10T05:17:46;8.40;;;7.70;;
38399;SDS011;24180;42.676;23.320;2023-05-10T05:20:12;9.20;;;8.40;;
38399;SDS011;24180;42.676;23.320;2023-05-10T05:22:38;8.27;;;7.57;;
38399;SDS011;24180;42.676;23.320;2023-05-10T05:25:04;9.70;;;8.33;;
38399;SDS011;24180;42.676;23.320;2023-05-10T05:27:30;8.87;;;7.97;;
38399;SDS011;24180;42.676;23.320;2023-05-10T05:29:56;8.63;;;7.83;;
38399;SDS011;24180;42.676;23.320;2023-05-10T05:32:23;9.40;;;8.50;;
38399;SDS011;24180;42.676;23.320;2023-05-10T05:34:49;9.53;;;8.50;;
38399;SDS011;24180;42.676;23.320;2023-05-10T05:37:14;9.27;;;8.37;;
38399;SDS011;24180;42.676;23.320;2023-05-10T05:39:41;9.83;;;8.37;;
38399;SDS011;24180;42.676;23.320;2023-05-10T05:42:07;9.47;;;8.57;;
38399;SDS011;24180;42.676;23.320;2023-05-10T05:44:36;10.67;;;9.70;;
38399;SDS011;24180;42.676;23.320;2023-05-10T05:47:02;10.00;;;9.13;;
38399;SDS011;24180;42.676;23.320;2023-05-10T05:49:28;10.10;;;9.10;;
38399;SDS011;24180;42.676;23.320;2023-05-10T05:51:53;12.03;;;9.53;;
38399;SDS011;24180;42.676;23.320;2023-05-10T05:54:19;10.50;;;9.40;;
38399;SDS011;24180;42.676;23.320;2023-05-10T05:56:45;9.87;;;8.87;;
38399;SDS011;24180;42.676;23.320;2023-05-10T05:59:10;13.67;;;9.60;;
38399;SDS011;24180;42.676;23.320;2023-05-10T06:01:36;18.30;;;11.00;;
38399;SDS011;24180;42.676;23.320;2023-05-10T06:04:02;13.57;;;10.70;;
38399;SDS011;24180;42.676;23.320;2023-05-10T06:06:27;29.20;;;13.70;;
38399;SDS011;24180;42.676;23.320;2023-05-10T06:08:53;17.20;;;11.20;;
38399;SDS011;24180;42.676;23.320;2023-05-10T06:11:18;19.10;;;11.60;;
38399;SDS011;24180;42.676;23.320;2023-05-10T06:13:45;11.00;;;9.90;;
38399;SDS011;24180;42.676;23.320;2023-05-10T06:16:11;17.93;;;12.17;;
38399;SDS011;24180;42.676;23.320;2023-05-10T06:18:36;12.13;;;10.53;;
38399;SDS011;24180;42.676;23.320;2023-05-10T06:21:01;14.00;;;10.70;;
38399;SDS011;24180;42.676;23.320;2023-05-10T06:23:27;12.80;;;9.97;;
38399;SDS011;24180;42.676;23.320;2023-05-10T06:25:52;11.00;;;9.60;;
38399;SDS011;24180;42.676;23.320;2023-05-10T06:28:17;15.07;;;10.23;;
38399;SDS011;24180;42.676;23.320;2023-05-10T06:30:43;10.47;;;9.50;;
38399;SDS011;24180;42.676;23.320;2023-05-10T06:33:09;10.63;;;9.60;;
38399;SDS011;24180;42.676;23.320;2023-05-10T06:35:34;12.53;;;10.47;;
38399;SDS011;24180;42.676;23.320;2023-05-10T06:38:01;24.13;;;22.37;;
38399;SDS011;24180;42.676;23.320;2023-05-10T06:40:27;11.50;;;10.40;;
38399;SDS011;24180;42.676;23.320;2023-05-10T06:42:52;12.77;;;10.07;;
38399;SDS011;24180;42.676;23.320;2023-05-10T06:45:18;10.77;;;9.77;;
38399;SDS011;24180;42.676;23.320;2023-05-10T06:47:43;12.10;;;9.80;;
38399;SDS011;24180;42.676;23.320;2023-05-10T06:50:09;11.03;;;9.90;;
38399;SDS011;24180;42.676;23.320;2023-05-10T06:52:36;10.13;;;9.17;;
38399;SDS011;24180;42.676;23.320;2023-05-10T06:55:02;15.73;;;11.27;;
38399;SDS011;24180;42.676;23.320;2023-05-10T06:57:29;11.53;;;9.90;;
38399;SDS011;24180;42.676;23.320;2023-05-10T06:59:54;10.27;;;9.30;;
38399;SDS011;24180;42.676;23.320;2023-05-10T07:02:21;10.23;;;9.20;;
38399;SDS011;24180;42.676;23.320;2023-05-10T07:04:47;14.97;;;10.27;;
38399;SDS011;24180;42.676;23.320;2023-05-10T07:07:13;12.03;;;9.10;;
38399;SDS011;24180;42.676;23.320;2023-05-10T07:09:39;10.20;;;9.20;;
38399;SDS011;24180;42.676;23.320;2023-05-10T07:12:04;10.63;;;9.53;;
38399;SDS011;24180;42.676;23.320;2023-05-10T07:14:30;11.50;;;10.27;;
38399;SDS011;24180;42.676;23.320;2023-05-10T07:16:55;11.37;;;10.20;;
38399;SDS011;24180;42.676;23.320;2023-05-10T07:19:20;10.90;;;9.80;;
38399;SDS011;24180;42.676;23.320;2023-05-10T07:21:46;12.53;;;11.23;;
38399;SDS011;24180;42.676;23.320;2023-05-10T07:24:12;10.30;;;9.40;;
38399;SDS011;24180;42.676;23.320;2023-05-10T07:26:38;10.53;;;9.53;;
38399;SDS011;24180;42.676;23.320;2023-05-10T07:29:03;9.57;;;8.67;;
38399;SDS011;24180;42.676;23.320;2023-05-10T07:31:28;9.90;;;9.00;;
38399;SDS011;24180;42.676;23.320;2023-05-10T07:33:54;17.03;;;10.47;;
38399;SDS011;24180;42.676;23.320;2023-05-10T07:36:19;9.87;;;8.93;;
38399;SDS011;24180;42.676;23.320;2023-05-10T07:38:45;10.27;;;9.13;;
38399;SDS011;24180;42.676;23.320;2023-05-10T07:41:13;17.13;;;11.47;;
38399;SDS011;24180;42.676;23.320;2023-05-10T07:43:38;10.27;;;9.30;;
38399;SDS011;24180;42.676;23.320;2023-05-10T07:46:04;11.80;;;10.00;;
38399;SDS011;24180;42.676;23.320;2023-05-10T07:48:30;12.53;;;9.50;;
38399;SDS011;24180;42.676;23.320;2023-05-10T07:50:56;11.70;;;9.33;;
38399;SDS011;24180;42.676;23.320;2023-05-10T07:53:21;12.73;;;10.30;;
38399;SDS011;24180;42.676;23.320;2023-05-10T07:55:50;12.10;;;10.90;;
38399;SDS011;24180;42.676;23.320;2023-05-10T07:58:16;11.00;;;9.90;;
38399;SDS011;24180;42.676;23.320;2023-05-10T08:00:42;11.63;;;10.53;;
38399;SDS011;24180;42.676;23.320;2023-05-10T08:03:07;12.27;;;10.93;;
38399;SDS011;24180;42.676;23.320;2023-05-10T08:05:33;12.23;;;11.10;;
38399;SDS011;24180;42.676;23.320;2023-05-10T08:07:58;15.03;;;11.17;;
38399;SDS011;24180;42.676;23.320;2023-05-10T08:10:24;15.90;;;10.47;;
38399;SDS011;24180;42.676;23.320;2023-05-10T08:12:50;12.60;;;11.40;;
38399;SDS011;24180;42.676;23.320;2023-05-10T08:15:16;10.50;;;9.50;;
38399;SDS011;24180;42.676;23.320;2023-05-10T08:17:41;14.03;;;11.10;;
38399;SDS011;24180;42.676;23.320;2023-05-10T08:20:08;17.13;;;12.07;;
38399;SDS011;24180;42.676;23.320;2023-05-10T08:22:33;12.23;;;10.87;;
38399;SDS011;24180;42.676;23.320;2023-05-10T08:24:59;12.53;;;11.33;;
38399;SDS011;24180;42.676;23.320;2023-05-10T08:27:24;11.53;;;10.10;;
38399;SDS011;24180;42.676;23.320;2023-05-10T08:29:50;12.33;;;11.13;;
38399;SDS011;24180;42.676;23.320;2023-05-10T08:32:15;15.07;;;10.47;;
38399;SDS011;24180;42.676;23.320;2023-05-10T08:34:40;12.40;;;10.43;;
38399;SDS011;24180;42.676;23.320;2023-05-10T08:37:06;14.20;;;10.73;;
38399;SDS011;24180;42.676;23.320;2023-05-10T08:39:35;11.67;;;10.47;;
38399;SDS011;24180;42.676;23.320;2023-05-10T08:42:01;12.40;;;11.17;;
38399;SDS011;24180;42.676;23.320;2023-05-10T08:44:29;11.27;;;10.17;;
38399;SDS011;24180;42.676;23.320;2023-05-10T08:46:57;12.90;;;10.77;;
38399;SDS011;24180;42.676;23.320;2023-05-10T08:49:27;11.50;;;10.43;;
38399;SDS011;24180;42.676;23.320;2023-05-10T08:51:56;14.23;;;12.73;;
38399;SDS011;24180;42.676;23.320;2023-05-10T08:54:24;13.43;;;12.20;;
38399;SDS011;24180;42.676;23.320;2023-05-10T08:56:51;13.70;;;11.80;;
38399;SDS011;24180;42.676;23.320;2023-05-10T08:59:18;12.17;;;10.97;;
38399;SDS011;24180;42.676;23.320;2023-05-10T09:01:44;12.97;;;11.60;;
38399;SDS011;24180;42.676;23.320;2023-05-10T09:04:10;12.47;;;11.17;;
38399;SDS011;24180;42.676;23.320;2023-05-10T09:06:37;14.37;;;10.83;;
38399;SDS011;24180;42.676;23.320;2023-05-10T09:09:02;15.23;;;11.87;;
38399;SDS011;24180;42.676;23.320;2023-05-10T09:11:28;16.40;;;12.10;;
38399;SDS011;24180;42.676;23.320;2023-05-10T09:13:55;14.80;;;11.87;;
38399;SDS011;24180;42.676;23.320;2023-05-10T09:16:21;12.77;;;11.43;;
38399;SDS011;24180;42.676;23.320;2023-05-10T09:18:47;13.07;;;11.70;;
38399;SDS011;24180;42.676;23.320;2023-05-10T09:21:12;12.30;;;11.10;;
38399;SDS011;24180;42.676;23.320;2023-05-10T09:23:39;13.03;;;11.73;;
38399;SDS011;24180;42.676;23.320;2023-05-10T09:26:08;12.37;;;11.20;;
38399;SDS011;24180;42.676;23.320;2023-05-10T09:28:34;17.43;;;14.60;;
38399;SDS011;24180;42.676;23.320;2023-05-10T09:31:14;13.63;;;12.47;;
38399;SDS011;24180;42.676;23.320;2023-05-10T09:33:43;12.90;;;11.60;;
38399;SDS011;24180;42.676;23.320;2023-05-10T09:36:10;16.17;;;11.40;;
38399;SDS011;24180;42.676;23.320;2023-05-10T09:38:44;13.03;;;11.63;;
38399;SDS011;24180;42.676;23.320;2023-05-10T09:41:17;12.43;;;11.33;;
38399;SDS011;24180;42.676;23.320;2023-05-10T09:43:43;12.40;;;11.30;;
38399;SDS011;24180;42.676;23.320;2023-05-10T09:46:09;11.33;;;10.23;;
38399;SDS011;24180;42.676;23.320;2023-05-10T09:48:40;13.20;;;11.87;;
38399;SDS011;24180;42.676;23.320;2023-05-10T09:51:07;12.70;;;11.57;;
38399;SDS011;24180;42.676;23.320;2023-05-10T09:53:33;10.77;;;9.87;;
38399;SDS011;24180;42.676;23.320;2023-05-10T09:55:58;13.73;;;11.77;;
38399;SDS011;24180;42.676;23.320;2023-05-10T09:58:24;12.57;;;11.37;;
38399;SDS011;24180;42.676;23.320;2023-05-10T10:00:49;13.10;;;10.53;;
38399;SDS011;24180;42.676;23.320;2023-05-10T10:03:19;12.53;;;11.23;;
38399;SDS011;24180;42.676;23.320;2023-05-10T10:05:46;12.80;;;11.50;;
38399;SDS011;24180;42.676;23.320;2023-05-10T10:08:12;13.10;;;11.70;;
38399;SDS011;24180;42.676;23.320;2023-05-10T10:10:39;11.73;;;10.67;;
38399;SDS011;24180;42.676;23.320;2023-05-10T10:13:06;13.10;;;11.20;;
38399;SDS011;24180;42.676;23.320;2023-05-10T10:15:32;12.90;;;11.10;;
38399;SDS011;24180;42.676;23.320;2023-05-10T10:17:59;12.77;;;11.57;;
38399;SDS011;24180;42.676;23.320;2023-05-10T10:20:25;12.27;;;11.10;;
38399;SDS011;24180;42.676;23.320;2023-05-10T10:22:51;11.90;;;10.57;;
38399;SDS011;24180;42.676;23.320;2023-05-10T10:25:17;12.53;;;11.33;;
38399;SDS011;24180;42.676;23.320;2023-05-10T10:30:31;12.83;;;10.10;;
38399;SDS011;24180;42.676;23.320;2023-05-10T10:35:39;12.70;;;9.90;;
38399;SDS011;24180;42.676;23.320;2023-05-10T10:38:07;12.17;;;10.67;;
38399;SDS011;24180;42.676;23.320;2023-05-10T10:40:34;11.90;;;10.53;;
38399;SDS011;24180;42.676;23.320;2023-05-10T10:48:43;16.17;;;9.50;;
38399;SDS011;24180;42.676;23.320;2023-05-10T10:51:13;16.27;;;9.63;;
38399;SDS011;24180;42.676;23.320;2023-05-10T10:53:39;13.73;;;9.17;;
38399;SDS011;24180;42.676;23.320;2023-05-10T10:56:09;11.90;;;8.53;;
38399;SDS011;24180;42.676;23.320;2023-05-10T10:58:37;18.40;;;8.77;;
38399;SDS011;24180;42.676;23.320;2023-05-10T11:01:18;11.23;;;8.60;;
38399;SDS011;24180;42.676;23.320;2023-05-10T11:06:28;13.20;;;9.30;;
38399;SDS011;24180;42.676;23.320;2023-05-10T11:08:56;10.53;;;8.30;;
38399;SDS011;24180;42.676;23.320;2023-05-10T11:11:22;21.40;;;9.73;;
38399;SDS011;24180;42.676;23.320;2023-05-10T11:13:48;8.63;;;7.87;;
38399;SDS011;24180;42.676;23.320;2023-05-10T11:16:17;11.90;;;7.90;;
38399;SDS011;24180;42.676;23.320;2023-05-10T11:18:57;9.47;;;8.33;;
38399;SDS011;24180;42.676;23.320;2023-05-10T11:21:23;22.87;;;10.40;;
38399;SDS011;24180;42.676;23.320;2023-05-10T11:23:50;17.73;;;9.07;;
38399;SDS011;24180;42.676;23.320;2023-05-10T11:26:27;9.57;;;7.97;;
38399;SDS011;24180;42.676;23.320;2023-05-10T11:28:56;9.20;;;8.17;;
38399;SDS011;24180;42.676;23.320;2023-05-10T11:31:22;11.57;;;8.23;;
38399;SDS011;24180;42.676;23.320;2023-05-10T11:33:51;8.40;;;7.60;;
38399;SDS011;24180;42.676;23.320;2023-05-10T11:39:16;8.60;;;7.73;;
38399;SDS011;24180;42.676;23.320;2023-05-10T11:41:41;9.43;;;8.33;;
38399;SDS011;24180;42.676;23.320;2023-05-10T11:44:07;8.73;;;7.83;;
38399;SDS011;24180;42.676;23.320;2023-05-10T11:46:34;9.67;;;8.63;;
38399;SDS011;24180;42.676;23.320;2023-05-10T11:49:02;10.30;;;8.43;;
38399;SDS011;24180;42.676;23.320;2023-05-10T11:51:29;9.93;;;7.93;;
38399;SDS011;24180;42.676;23.320;2023-05-10T11:53:57;8.97;;;8.07;;
38399;SDS011;24180;42.676;23.320;2023-05-10T11:56:23;9.77;;;7.97;;
38399;SDS011;24180;42.676;23.320;2023-05-10T11:58:56;10.27;;;8.53;;
38399;SDS011;24180;42.676;23.320;2023-05-10T12:01:22;12.90;;;8.50;;
38399;SDS011;24180;42.676;23.320;2023-05-10T12:03:50;11.60;;;8.30;;
38399;SDS011;24180;42.676;23.320;2023-05-10T12:06:17;9.63;;;8.70;;
38399;SDS011;24180;42.676;23.320;2023-05-10T12:08:47;8.97;;;8.23;;
38399;SDS011;24180;42.676;23.320;2023-05-10T12:11:17;9.97;;;9.03;;
38399;SDS011;24180;42.676;23.320;2023-05-10T12:13:43;9.63;;;8.63;;
38399;SDS011;24180;42.676;23.320;2023-05-10T12:16:16;10.03;;;8.87;;
38399;SDS011;24180;42.676;23.320;2023-05-10T12:18:43;10.37;;;9.23;;
38399;SDS011;24180;42.676;23.320;2023-05-10T12:21:09;12.07;;;8.80;;
38399;SDS011;24180;42.676;23.320;2023-05-10T12:23:36;12.30;;;9.27;;
38399;SDS011;24180;42.676;23.320;2023-05-10T12:26:03;9.87;;;8.93;;
38399;SDS011;24180;42.676;23.320;2023-05-10T12:28:30;9.57;;;8.67;;
38399;SDS011;24180;42.676;23.320;2023-05-10T12:30:57;9.50;;;8.57;;
38399;SDS011;24180;42.676;23.320;2023-05-10T12:33:23;9.23;;;7.73;;
38399;SDS011;24180;42.676;23.320;2023-05-10T12:35:50;10.23;;;8.83;;
38399;SDS011;24180;42.676;23.320;2023-05-10T12:41:01;16.77;;;10.07;;
38399;SDS011;24180;42.676;23.320;2023-05-10T12:43:28;10.80;;;9.80;;
38399;SDS011;24180;42.676;23.320;2023-05-10T12:45:53;10.30;;;9.30;;
38399;SDS011;24180;42.676;23.320;2023-05-10T12:48:19;14.00;;;9.50;;
38399;SDS011;24180;42.676;23.320;2023-05-10T12:50:45;15.37;;;10.03;;
38399;SDS011;24180;42.676;23.320;2023-05-10T12:53:11;10.10;;;9.13;;
38399;SDS011;24180;42.676;23.320;2023-05-10T12:55:36;11.83;;;9.30;;
38399;SDS011;24180;42.676;23.320;2023-05-10T12:58:01;11.53;;;10.33;;
38399;SDS011;24180;42.676;23.320;2023-05-10T13:00:27;12.70;;;8.40;;
38399;SDS011;24180;42.676;23.320;2023-05-10T13:02:52;10.70;;;9.50;;
38399;SDS011;24180;42.676;23.320;2023-05-10T13:05:18;9.40;;;8.60;;
38399;SDS011;24180;42.676;23.320;2023-05-10T13:07:43;11.40;;;10.17;;
38399;SDS011;24180;42.676;23.320;2023-05-10T13:10:09;17.07;;;11.03;;
38399;SDS011;24180;42.676;23.320;2023-05-10T13:12:35;15.60;;;10.13;;
38399;SDS011;24180;42.676;23.320;2023-05-10T13:15:01;9.90;;;8.90;;
38399;SDS011;24180;42.676;23.320;2023-05-10T13:17:28;9.93;;;9.13;;
38399;SDS011;24180;42.676;23.320;2023-05-10T13:19:54;14.27;;;10.10;;
38399;SDS011;24180;42.676;23.320;2023-05-10T13:22:19;9.63;;;8.70;;
38399;SDS011;24180;42.676;23.320;2023-05-10T13:25:03;11.97;;;9.83;;
38399;SDS011;24180;42.676;23.320;2023-05-10T13:27:29;16.50;;;10.07;;
38399;SDS011;24180;42.676;23.320;2023-05-10T13:29:55;12.37;;;9.27;;
38399;SDS011;24180;42.676;23.320;2023-05-10T13:32:20;12.93;;;9.00;;
38399;SDS011;24180;42.676;23.320;2023-05-10T13:34:46;10.07;;;8.97;;
38399;SDS011;24180;42.676;23.320;2023-05-10T13:37:11;10.83;;;8.10;;
38399;SDS011;24180;42.676;23.320;2023-05-10T13:39:37;10.50;;;8.23;;
38399;SDS011;24180;42.676;23.320;2023-05-10T13:42:03;14.27;;;8.23;;
38399;SDS011;24180;42.676;23.320;2023-05-10T13:44:29;13.47;;;8.30;;
38399;SDS011;24180;42.676;23.320;2023-05-10T13:46:55;9.80;;;7.43;;
38399;SDS011;24180;42.676;23.320;2023-05-10T13:49:21;11.57;;;7.80;;
38399;SDS011;24180;42.676;23.320;2023-05-10T13:51:47;9.57;;;7.83;;
38399;SDS011;24180;42.676;23.320;2023-05-10T13:54:12;9.20;;;8.20;;
38399;SDS011;24180;42.676;23.320;2023-05-10T13:56:38;9.00;;;7.60;;
38399;SDS011;24180;42.676;23.320;2023-05-10T13:59:04;11.13;;;9.13;;
38399;SDS011;24180;42.676;23.320;2023-05-10T14:01:29;11.97;;;9.30;;
38399;SDS011;24180;42.676;23.320;2023-05-10T14:03:55;11.63;;;9.77;;
38399;SDS011;24180;42.676;23.320;2023-05-10T14:06:20;10.03;;;9.03;;
38399;SDS011;24180;42.676;23.320;2023-05-10T14:08:46;10.10;;;9.10;;
38399;SDS011;24180;42.676;23.320;2023-05-10T14:11:12;9.47;;;8.57;;
38399;SDS011;24180;42.676;23.320;2023-05-10T14:13:37;13.07;;;9.33;;
38399;SDS011;24180;42.676;23.320;2023-05-10T14:16:03;11.20;;;8.77;;
38399;SDS011;24180;42.676;23.320;2023-05-10T14:18:29;9.43;;;8.50;;
38399;SDS011;24180;42.676;23.320;2023-05-10T14:20:54;9.30;;;8.47;;
38399;SDS011;24180;42.676;23.320;2023-05-10T14:23:21;13.43;;;8.87;;
38399;SDS011;24180;42.676;23.320;2023-05-10T14:25:49;9.73;;;8.07;;
38399;SDS011;24180;42.676;23.320;2023-05-10T14:28:16;9.90;;;8.63;;
38399;SDS011;24180;42.676;23.320;2023-05-10T14:30:42;11.53;;;9.03;;
38399;SDS011;24180;42.676;23.320;2023-05-10T14:33:09;9.93;;;8.67;;
38399;SDS011;24180;42.676;23.320;2023-05-10T14:35:35;10.10;;;8.93;;
38399;SDS011;24180;42.676;23.320;2023-05-10T14:38:01;9.90;;;8.90;;
38399;SDS011;24180;42.676;23.320;2023-05-10T14:40:28;11.63;;;9.10;;
38399;SDS011;24180;42.676;23.320;2023-05-10T14:42:54;10.30;;;9.23;;
38399;SDS011;24180;42.676;23.320;2023-05-10T14:45:20;12.07;;;9.40;;
38399;SDS011;24180;42.676;23.320;2023-05-10T14:47:46;10.80;;;8.73;;
38399;SDS011;24180;42.676;23.320;2023-05-10T14:50:11;11.80;;;9.67;;
38399;SDS011;24180;42.676;23.320;2023-05-10T14:52:37;11.57;;;9.70;;
38399;SDS011;24180;42.676;23.320;2023-05-10T14:55:02;12.17;;;9.80;;
38399;SDS011;24180;42.676;23.320;2023-05-10T14:57:28;10.47;;;9.30;;
38399;SDS011;24180;42.676;23.320;2023-05-10T14:59:54;11.77;;;9.17;;
38399;SDS011;24180;42.676;23.320;2023-05-10T15:02:21;9.73;;;8.93;;
38399;SDS011;24180;42.676;23.320;2023-05-10T15:04:47;10.20;;;9.20;;